Main page
METAR-TAF:

METAR-TAF

Airports :

Kasane Airport

Kasane, Botswana

latitude: 17-49S, longitude: 025-09E, elevation: 968 m

Current weather observation

The report was made 49 minutes ago, at 09:00 UTC
Wind 8 kt from the Northeast, varying between North/Northwest and East/Southeast
Temperature 35°C
Humidity 19%
Pressure 1018 hPa
Visibility 10 km or more
no clouds below 1500 m and no cumulonimbus

METAR: FBKE 170900Z 05008KT 330V110 CAVOK 35/08 Q1018

Time: 11:49 (09:49 UTC)

Forecast

The report was made 3 hours and 49 minutes ago, at 06:00 UTC
Forecast valid from 17 at 09 UTC to 17 at 18 UTC
Wind 6 kt from the Northeast
Visibility 10 km or more
no clouds below 1500 m and no cumulonimbus

TAF: FBKE 170600Z 1709/1718 04006KT CAVOK

Weather observations and forecasts of more than 4000 airports (METAR and TAF reports).

The available stations are represented by yellow and red dots on the map.

Hover mouse over dot to see the name of the station.

Then click to see weather observations and forecasts.

To change the map : click on the green buttons with a black cross to zoom in, on the green button with a dash to zoom out, or on the green arrows for adjacent maps.


METAR-TAF: